Time;durP1;ratioP1;P1;durP2;ratioP2;P2;SDS_P1;SDS_P2;PMS_P1;PMS_P2;Temp;Humidity;BMP_temperature;BMP_pressure;BME280_temperature;BME280_humidity;BME280_pressure;Samples;Min_cycle;Max_cycle;Signal;HPM_P1;HPM_P2
2022/07/02 00:02:17;;;;;;;7.68;4.28;;;17.30;80.80;;;;;;5004420;28;20460;-75
2022/07/02 00:05:07;;;;;;;7.57;4.80;;;17.30;81.00;;;;;;5025467;28;20270;-76
2022/07/02 00:07:33;;;;;;;8.48;4.82;;;17.30;81.10;;;;;;5003560;28;20142;-76
2022/07/02 00:09:59;;;;;;;9.15;4.63;;;17.30;81.10;;;;;;5008558;28;20447;-75
2022/07/02 00:12:27;;;;;;;9.00;4.65;;;17.30;81.40;;;;;;5004785;28;20042;-74
2022/07/02 00:14:59;;;;;;;11.82;5.43;;;17.20;81.40;;;;;;5004247;28;20026;-75
2022/07/02 00:17:26;;;;;;;9.45;4.85;;;17.20;81.70;;;;;;5006176;28;20018;-75
2022/07/02 00:19:53;;;;;;;7.53;4.78;;;17.20;81.80;;;;;;5010946;28;20133;-75
2022/07/02 00:22:19;;;;;;;7.63;4.05;;;17.20;82.10;;;;;;5009257;28;20028;-74
2022/07/02 00:24:45;;;;;;;9.00;4.70;;;17.20;82.10;;;;;;4999480;28;20022;-74
2022/07/02 00:27:13;;;;;;;8.90;4.65;;;17.20;82.00;;;;;;5009880;28;20027;-75
2022/07/02 00:30:03;;;;;;;11.07;4.53;;;17.20;82.10;;;;;;5000028;28;20061;-75
2022/07/02 00:32:31;;;;;;;8.57;4.68;;;17.10;82.10;;;;;;5009048;28;20022;-75
2022/07/02 00:34:58;;;;;;;6.60;4.30;;;17.10;82.10;;;;;;4998873;28;20631;-75
2022/07/02 00:37:26;;;;;;;11.85;5.00;;;17.10;82.20;;;;;;5009631;28;20117;-75
2022/07/02 00:39:53;;;;;;;10.52;5.05;;;17.10;82.40;;;;;;5000041;28;20022;-75
2022/07/02 00:42:20;;;;;;;7.03;4.47;;;17.10;82.40;;;;;;5010931;28;20087;-74
2022/07/02 00:44:47;;;;;;;10.75;4.50;;;17.10;82.40;;;;;;5005487;28;20535;-75
2022/07/02 00:47:14;;;;;;;9.02;4.72;;;17.00;82.50;;;;;;4990696;28;20097;-74
2022/07/02 00:49:40;;;;;;;8.85;4.68;;;17.00;82.70;;;;;;5007804;28;20088;-74
2022/07/02 00:52:07;;;;;;;6.43;4.80;;;17.00;82.90;;;;;;4990678;28;20773;-74
2022/07/02 00:54:35;;;;;;;8.50;4.65;;;17.00;82.90;;;;;;4994290;28;20094;-75
2022/07/02 00:57:03;;;;;;;7.82;4.38;;;17.00;82.90;;;;;;4998958;28;20825;-75
2022/07/02 00:59:29;;;;;;;10.25;5.45;;;17.00;82.80;;;;;;5000658;28;20110;-75
2022/07/02 01:01:55;;;;;;;8.13;4.90;;;17.00;82.80;;;;;;5008540;28;20068;-74
2022/07/02 01:04:23;;;;;;;7.78;5.07;;;17.00;82.70;;;;;;5006085;28;20928;-76
2022/07/02 01:06:50;;;;;;;8.27;5.18;;;16.90;82.70;;;;;;4995610;28;20526;-75
2022/07/02 01:12:02;;;;;;;8.00;4.53;;;16.90;82.40;;;;;;5006378;28;20103;-74
2022/07/02 01:14:28;;;;;;;7.82;4.68;;;16.90;82.40;;;;;;5005823;28;20048;-75
2022/07/02 01:16:54;;;;;;;7.95;5.13;;;16.90;82.60;;;;;;5010235;28;20037;-75
2022/07/02 01:19:22;;;;;;;8.88;4.50;;;16.90;82.80;;;;;;5006770;28;20022;-75
2022/07/02 01:22:19;;;;;;;9.02;5.00;;;16.80;82.80;;;;;;5000971;28;20022;-76
2022/07/02 01:24:47;;;;;;;8.65;5.75;;;16.80;82.70;;;;;;5005183;28;20030;-74
2022/07/02 01:27:14;;;;;;;7.75;5.55;;;16.80;82.90;;;;;;4997081;28;20030;-75
2022/07/02 01:29:39;;;;;;;8.73;4.97;;;16.70;83.30;;;;;;4994486;28;20072;-75
2022/07/02 01:32:06;;;;;;;9.88;5.63;;;16.70;83.40;;;;;;5000773;28;20030;-75
2022/07/02 01:34:46;;;;;;;7.07;5.47;;;16.70;83.30;;;;;;5009074;28;20949;-75
2022/07/02 01:37:14;;;;;;;8.20;5.85;;;16.70;83.50;;;;;;4999772;28;20034;-74
2022/07/02 01:39:41;;;;;;;9.93;5.78;;;16.70;83.60;;;;;;4991470;28;20044;-75
2022/07/02 01:42:08;;;;;;;11.15;5.72;;;16.70;83.80;;;;;;5008760;28;20507;-75
2022/07/02 01:44:34;;;;;;;8.77;5.05;;;16.70;84.00;;;;;;5009130;28;20054;-75
2022/07/02 01:47:03;;;;;;;9.30;5.53;;;16.60;84.10;;;;;;4999419;28;20105;-75
2022/07/02 01:49:28;;;;;;;8.55;5.75;;;16.60;84.10;;;;;;4988640;28;20042;-74
2022/07/02 01:51:54;;;;;;;11.90;5.72;;;16.60;84.00;;;;;;5002464;28;20572;-75
2022/07/02 01:54:20;;;;;;;8.55;4.97;;;16.60;83.80;;;;;;4988803;28;20394;-75
2022/07/02 01:56:45;;;;;;;9.10;5.78;;;16.60;83.50;;;;;;4996955;28;20058;-75
2022/07/02 01:59:13;;;;;;;11.63;5.63;;;16.50;83.60;;;;;;4989603;28;20057;-75
2022/07/02 02:01:39;;;;;;;10.20;6.15;;;16.50;83.70;;;;;;5000794;28;20044;-75
2022/07/02 02:04:05;;;;;;;9.50;5.80;;;16.50;83.70;;;;;;4990525;28;20148;-75
2022/07/02 02:06:30;;;;;;;11.15;6.05;;;16.50;83.80;;;;;;4993555;28;20086;-74
2022/07/02 02:08:56;;;;;;;10.85;6.93;;;16.40;83.80;;;;;;5005384;28;20053;-74
2022/07/02 02:11:22;;;;;;;7.53;5.50;;;16.40;83.90;;;;;;5003422;28;20025;-74
2022/07/02 02:13:47;;;;;;;9.13;5.32;;;16.40;84.30;;;;;;5009334;28;20018;-74
2022/07/02 02:16:13;;;;;;;9.18;5.78;;;16.40;84.30;;;;;;5006031;28;20026;-75
2022/07/02 02:18:38;;;;;;;9.85;6.00;;;16.40;84.30;;;;;;5000337;28;20029;-75
2022/07/02 02:21:05;;;;;;;10.40;6.00;;;16.40;84.30;;;;;;5007425;28;20392;-75
2022/07/02 02:23:31;;;;;;;10.18;5.97;;;16.40;84.30;;;;;;4997000;28;20033;-75
2022/07/02 02:25:57;;;;;;;10.18;6.78;;;16.40;84.30;;;;;;5008636;28;20022;-74
2022/07/02 02:28:23;;;;;;;9.73;6.78;;;16.40;84.30;;;;;;4997989;28;20457;-74
2022/07/02 02:30:49;;;;;;;11.15;5.97;;;16.40;84.50;;;;;;5010869;28;20029;-74
2022/07/02 02:33:15;;;;;;;10.25;6.05;;;16.30;84.30;;;;;;4998046;28;20026;-75
2022/07/02 02:35:40;;;;;;;9.00;6.50;;;16.30;84.10;;;;;;5013491;28;20571;-75
2022/07/02 02:38:06;;;;;;;11.82;7.25;;;16.30;84.30;;;;;;5007423;28;20366;-74
2022/07/02 02:40:32;;;;;;;11.07;5.93;;;16.30;84.50;;;;;;4990745;28;20457;-74
2022/07/02 02:42:58;;;;;;;9.50;6.43;;;16.30;84.50;;;;;;5000525;28;20105;-74
2022/07/02 02:45:23;;;;;;;10.23;7.10;;;16.20;85.10;;;;;;4991428;28;20030;-74
2022/07/02 02:47:49;;;;;;;8.52;5.55;;;16.20;84.60;;;;;;4997259;28;20523;-74
2022/07/02 02:50:14;;;;;;;10.30;5.97;;;16.20;84.50;;;;;;5009061;28;20103;-74
2022/07/02 02:52:40;;;;;;;8.30;5.13;;;16.20;84.40;;;;;;5003735;28;20022;-75
2022/07/02 02:55:06;;;;;;;9.45;6.40;;;16.10;84.30;;;;;;5014068;28;20061;-74
2022/07/02 02:57:31;;;;;;;9.00;6.53;;;16.10;84.30;;;;;;5013772;28;20022;-75
2022/07/02 02:59:57;;;;;;;9.80;5.40;;;16.10;84.40;;;;;;4998932;28;20026;-75
2022/07/02 03:02:22;;;;;;;15.15;8.68;;;16.10;84.50;;;;;;5007077;28;20481;-74
2022/07/02 03:04:48;;;;;;;10.30;6.07;;;16.00;84.30;;;;;;4997217;28;20054;-75
2022/07/02 03:07:14;;;;;;;8.60;5.82;;;16.00;84.50;;;;;;5007170;28;20034;-75
2022/07/02 03:09:39;;;;;;;10.10;6.22;;;16.00;84.80;;;;;;4996327;28;20128;-73
2022/07/02 03:12:05;;;;;;;9.25;5.47;;;16.00;84.80;;;;;;5006918;28;20487;-74
2022/07/02 03:14:31;;;;;;;12.60;7.40;;;16.00;84.60;;;;;;4995848;28;20030;-73
2022/07/02 03:16:56;;;;;;;10.27;6.65;;;16.00;84.90;;;;;;5008621;28;20395;-74
2022/07/02 03:19:22;;;;;;;9.00;7.20;;;16.00;85.10;;;;;;5004153;28;20033;-75
2022/07/02 03:21:48;;;;;;;10.60;6.97;;;16.10;85.00;;;;;;4987702;28;20022;-74
2022/07/02 03:24:13;;;;;;;13.73;6.38;;;16.00;84.90;;;;;;4997404;28;20097;-75
2022/07/02 03:26:39;;;;;;;11.07;6.93;;;16.10;84.90;;;;;;4992037;28;20027;-74
2022/07/02 03:29:04;;;;;;;11.15;7.13;;;16.00;84.90;;;;;;4992573;28;20065;-75
2022/07/02 03:31:30;;;;;;;8.60;6.60;;;16.00;85.20;;;;;;5003178;28;20018;-75
2022/07/02 03:33:56;;;;;;;9.32;7.05;;;16.00;85.30;;;;;;5004106;28;20058;-74
2022/07/02 03:36:21;;;;;;;9.88;5.95;;;16.00;85.50;;;;;;4999895;28;20040;-74
2022/07/02 03:38:47;;;;;;;11.98;6.85;;;16.00;85.50;;;;;;4996489;28;20030;-75
2022/07/02 03:41:12;;;;;;;10.77;6.70;;;16.00;85.30;;;;;;4999386;28;20037;-75
2022/07/02 03:43:38;;;;;;;10.52;6.80;;;16.00;85.30;;;;;;4989782;28;20093;-75
2022/07/02 03:46:04;;;;;;;9.68;6.95;;;16.10;85.40;;;;;;4999036;28;20030;-74
2022/07/02 03:48:29;;;;;;;12.43;6.72;;;16.10;85.20;;;;;;4989181;28;20044;-75
2022/07/02 03:50:55;;;;;;;11.25;6.32;;;16.10;85.20;;;;;;4995471;28;20037;-74
2022/07/02 03:53:21;;;;;;;10.70;7.22;;;16.20;85.10;;;;;;5008344;28;20129;-75
2022/07/02 03:55:46;;;;;;;12.35;6.82;;;16.20;84.80;;;;;;4995416;28;20077;-74
2022/07/02 03:58:12;;;;;;;9.80;6.65;;;16.20;84.40;;;;;;4991509;28;20456;-75
2022/07/02 04:00:38;;;;;;;9.52;5.72;;;16.20;84.60;;;;;;4992536;28;20133;-75
2022/07/02 04:03:06;;;;;;;10.90;6.78;;;16.30;84.60;;;;;;5006861;28;20026;-75
2022/07/02 04:05:32;;;;;;;12.73;7.35;;;16.30;84.50;;;;;;4999004;28;20047;-75
2022/07/02 04:07:57;;;;;;;12.18;6.30;;;16.30;84.20;;;;;;5003131;28;20022;-75
2022/07/02 04:10:24;;;;;;;9.43;5.55;;;16.30;83.70;;;;;;5003638;28;20029;-75
2022/07/02 04:12:50;;;;;;;11.30;6.38;;;16.30;83.20;;;;;;4994572;28;20023;-74
2022/07/02 04:15:15;;;;;;;9.90;6.70;;;16.30;83.20;;;;;;4992260;28;20026;-74
2022/07/02 04:17:41;;;;;;;8.20;4.97;;;16.30;83.80;;;;;;4997818;28;20037;-74
2022/07/02 04:20:07;;;;;;;10.48;6.82;;;16.30;83.10;;;;;;5005200;28;20034;-74
2022/07/02 04:22:33;;;;;;;7.45;5.35;;;16.30;83.30;;;;;;5011669;28;20021;-75
2022/07/02 04:24:59;;;;;;;9.05;6.15;;;16.40;83.50;;;;;;5008981;28;20027;-75
2022/07/02 04:27:24;;;;;;;9.05;6.18;;;16.40;83.30;;;;;;5015238;28;20503;-75
2022/07/02 04:29:50;;;;;;;12.35;6.10;;;16.40;82.60;;;;;;5030540;28;20096;-75
2022/07/02 04:32:16;;;;;;;11.45;6.78;;;16.40;82.50;;;;;;5002094;28;20014;-75
2022/07/02 04:34:41;;;;;;;11.65;6.85;;;16.50;82.60;;;;;;4998037;28;20025;-75
2022/07/02 04:37:07;;;;;;;14.07;6.88;;;16.50;82.30;;;;;;5007795;28;20464;-74
2022/07/02 04:39:33;;;;;;;10.05;5.97;;;16.50;82.10;;;;;;4991804;28;20131;-76
2022/07/02 04:41:58;;;;;;;10.65;6.63;;;16.50;82.10;;;;;;5001125;28;20036;-74
2022/07/02 04:44:27;;;;;;;10.25;6.30;;;16.60;82.20;;;;;;4992311;28;20452;-75
2022/07/02 04:46:53;;;;;;;9.02;5.40;;;16.60;81.70;;;;;;4996913;28;20527;-75
2022/07/02 04:49:19;;;;;;;12.70;6.00;;;16.70;81.60;;;;;;4992155;28;20489;-75
2022/07/02 04:51:44;;;;;;;9.32;4.97;;;16.70;81.10;;;;;;4996965;28;20024;-74
2022/07/02 04:54:12;;;;;;;10.68;6.05;;;16.80;80.00;;;;;;5003072;28;20053;-75
2022/07/02 04:56:38;;;;;;;8.05;5.30;;;16.80;80.30;;;;;;5007768;28;20030;-75
2022/07/02 04:59:03;;;;;;;10.23;4.90;;;16.80;79.70;;;;;;5000352;28;20034;-74
2022/07/02 05:01:29;;;;;;;9.05;4.35;;;16.80;79.60;;;;;;4999654;28;20021;-74
2022/07/02 05:03:55;;;;;;;9.35;5.55;;;16.80;79.80;;;;;;5002532;28;20128;-75
2022/07/02 05:06:21;;;;;;;9.20;5.68;;;16.80;79.70;;;;;;5008854;28;20052;-75
2022/07/02 05:08:48;;;;;;;8.50;5.05;;;16.90;79.80;;;;;;4999848;28;20069;-75
2022/07/02 05:11:15;;;;;;;8.63;4.45;;;16.90;79.00;;;;;;4991430;28;20033;-75
2022/07/02 05:13:42;;;;;;;7.40;4.05;;;17.00;79.10;;;;;;4998599;28;20084;-74
2022/07/02 05:16:08;;;;;;;10.45;4.82;;;17.00;78.80;;;;;;5010049;28;20026;-75
2022/07/02 05:18:37;;;;;;;8.00;4.40;;;17.10;78.30;;;;;;5004339;28;20030;-73
2022/07/02 05:21:02;;;;;;;9.13;4.68;;;17.10;77.80;;;;;;4991052;28;20033;-75
2022/07/02 05:23:28;;;;;;;11.40;4.78;;;17.30;77.80;;;;;;5002705;28;20026;-76
2022/07/02 05:25:54;;;;;;;8.57;4.63;;;17.40;76.80;;;;;;5007116;28;20029;-75
2022/07/02 05:28:19;;;;;;;9.18;4.25;;;17.60;76.30;;;;;;5004281;28;20100;-74
2022/07/02 05:30:46;;;;;;;6.97;3.67;;;17.60;75.60;;;;;;4998363;28;20152;-74
2022/07/02 05:33:11;;;;;;;6.88;4.65;;;17.70;75.70;;;;;;4996508;28;20534;-74
2022/07/02 05:35:37;;;;;;;9.85;3.85;;;17.60;75.40;;;;;;5007931;28;20096;-75
2022/07/02 05:38:02;;;;;;;9.05;4.03;;;17.70;75.10;;;;;;4995878;28;20068;-74
2022/07/02 05:40:28;;;;;;;7.05;4.18;;;17.70;74.90;;;;;;5002553;28;20086;-75
2022/07/02 05:42:54;;;;;;;6.80;3.63;;;17.70;74.80;;;;;;5005616;28;20053;-74
2022/07/02 05:45:19;;;;;;;7.57;4.13;;;17.80;74.70;;;;;;5001470;28;20022;-73
2022/07/02 05:47:45;;;;;;;9.15;4.18;;;17.90;73.90;;;;;;4992013;28;20076;-74
2022/07/02 05:50:11;;;;;;;8.43;2.97;;;18.00;73.50;;;;;;5007380;28;20084;-76
2022/07/02 05:52:37;;;;;;;9.93;4.55;;;18.00;73.00;;;;;;5009240;28;20033;-75
2022/07/02 05:55:03;;;;;;;6.72;3.33;;;18.00;72.50;;;;;;5002004;28;20053;-75
2022/07/02 05:57:29;;;;;;;7.03;2.95;;;17.90;72.80;;;;;;4990535;28;20033;-74
2022/07/02 05:59:57;;;;;;;7.55;3.80;;;17.90;72.70;;;;;;4996879;28;20023;-76
2022/07/02 06:02:23;;;;;;;7.70;3.85;;;17.90;73.00;;;;;;4995299;28;20051;-75
2022/07/02 06:04:48;;;;;;;9.05;3.65;;;18.00;73.40;;;;;;4997256;28;20489;-75
2022/07/02 06:09:58;;;;;;;7.35;2.95;;;18.00;73.40;;;;;;4992077;28;20053;-74
2022/07/02 06:12:25;;;;;;;8.30;3.47;;;18.10;73.10;;;;;;5002597;28;20776;-75
2022/07/02 06:14:51;;;;;;;6.90;3.25;;;18.10;72.80;;;;;;4996477;28;20025;-74
2022/07/02 06:17:17;;;;;;;6.25;3.60;;;18.20;72.70;;;;;;5004149;28;20029;-75
2022/07/02 06:19:45;;;;;;;9.25;3.47;;;18.20;72.80;;;;;;4998628;28;20030;-74
2022/07/02 06:22:10;;;;;;;5.68;2.83;;;18.30;72.70;;;;;;4994540;28;20807;-75
2022/07/02 06:24:36;;;;;;;6.93;2.95;;;18.30;72.60;;;;;;4996791;28;20034;-74
2022/07/02 06:27:02;;;;;;;6.22;2.60;;;18.30;72.40;;;;;;5001975;28;20404;-75
2022/07/02 06:29:27;;;;;;;7.18;2.92;;;18.40;72.40;;;;;;5001782;28;20105;-74
2022/07/02 06:31:53;;;;;;;9.05;3.35;;;18.40;71.90;;;;;;4998352;28;20711;-75
2022/07/02 06:34:19;;;;;;;6.72;3.15;;;18.50;71.00;;;;;;5002236;28;20388;-76
2022/07/02 06:36:46;;;;;;;5.25;2.58;;;18.60;71.20;;;;;;4995009;28;20030;-75
2022/07/02 06:39:11;;;;;;;6.60;2.58;;;18.60;70.60;;;;;;4999189;28;20045;-75
2022/07/02 06:44:21;;;;;;;9.02;2.72;;;18.80;70.70;;;;;;5002760;28;20302;-74
2022/07/02 06:46:47;;;;;;;6.38;2.38;;;18.90;70.80;;;;;;4995472;28;20021;-75
2022/07/02 06:49:13;;;;;;;7.85;2.33;;;19.10;70.20;;;;;;4994199;28;20042;-75
2022/07/02 06:51:38;;;;;;;5.28;2.03;;;19.10;69.50;;;;;;4993880;28;20029;-75
2022/07/02 06:54:04;;;;;;;5.50;1.95;;;19.30;68.40;;;;;;4998194;28;20125;-76
2022/07/02 06:56:35;;;;;;;7.30;2.40;;;19.40;67.50;;;;;;4997217;28;20677;-76
2022/07/02 06:59:02;;;;;;;7.10;2.35;;;19.60;66.50;;;;;;4996518;28;20472;-76
2022/07/02 07:01:27;;;;;;;5.60;1.85;;;19.60;62.70;;;;;;4998593;28;20053;-75
2022/07/02 07:03:53;;;;;;;4.38;1.60;;;19.60;63.50;;;;;;4997718;28;20493;-76
2022/07/02 07:07:19;;;;;;;4.72;1.40;;;19.70;64.80;;;;;;5001294;28;20025;-76
2022/07/02 07:09:13;;;;;;;5.60;1.55;;;19.80;64.50;;;;;;4985410;28;20100;-75
2022/07/02 07:11:39;;;;;;;4.18;1.35;;;20.00;62.90;;;;;;4996853;28;20018;-75
2022/07/02 07:14:05;;;;;;;3.63;1.40;;;20.00;62.80;;;;;;5000883;28;20072;-77
2022/07/02 07:16:31;;;;;;;4.22;1.48;;;20.10;62.60;;;;;;4998550;28;20150;-75
2022/07/02 07:19:00;;;;;;;3.65;1.30;;;20.10;62.20;;;;;;4993849;28;20021;-73
2022/07/02 07:21:26;;;;;;;5.40;1.00;;;20.30;62.00;;;;;;5001277;28;20062;-74
2022/07/02 07:23:51;;;;;;;7.20;1.85;;;20.50;61.70;;;;;;5001807;28;20026;-73
2022/07/02 07:26:17;;;;;;;6.38;1.05;;;20.60;60.60;;;;;;5006580;28;20093;-73
2022/07/02 07:28:43;;;;;;;4.95;1.15;;;20.80;59.40;;;;;;5012903;28;20034;-73
2022/07/02 07:31:08;;;;;;;4.57;0.95;;;20.90;56.60;;;;;;5007063;28;20018;-74
2022/07/02 07:33:34;;;;;;;4.38;1.20;;;21.00;55.80;;;;;;4998727;28;20477;-74
2022/07/02 07:36:00;;;;;;;3.53;1.00;;;21.00;55.20;;;;;;4996729;28;20038;-76
2022/07/02 07:38:28;;;;;;;3.50;0.90;;;21.10;54.50;;;;;;4994052;28;20106;-74
2022/07/02 07:40:53;;;;;;;3.28;1.02;;;21.10;54.60;;;;;;4997044;28;20022;-74
2022/07/02 07:43:19;;;;;;;2.42;0.80;;;21.20;53.30;;;;;;4997226;28;20037;-74
2022/07/02 07:45:46;;;;;;;3.55;0.93;;;21.20;52.30;;;;;;4990477;28;20030;-73
2022/07/02 07:48:13;;;;;;;4.85;0.70;;;21.20;52.50;;;;;;4995748;28;20038;-74
2022/07/02 07:50:39;;;;;;;4.35;1.05;;;21.20;52.20;;;;;;4997944;28;20037;-73
2022/07/02 07:53:06;;;;;;;6.05;1.40;;;21.30;54.20;;;;;;4996034;28;20025;-74
2022/07/02 07:55:31;;;;;;;5.82;1.05;;;21.50;53.20;;;;;;5005617;28;20144;-74
2022/07/02 07:57:58;;;;;;;5.82;1.67;;;21.70;53.50;;;;;;5001599;28;20437;-73
2022/07/02 08:00:24;;;;;;;2.45;0.52;;;21.90;51.40;;;;;;5033756;28;20041;-76
2022/07/02 08:02:50;;;;;;;3.88;0.80;;;22.10;53.30;;;;;;4998219;28;20022;-73
2022/07/02 08:05:16;;;;;;;2.05;0.50;;;22.20;54.30;;;;;;4999053;28;20068;-73
2022/07/02 08:07:41;;;;;;;2.47;0.60;;;22.30;53.20;;;;;;4993798;28;20026;-74
2022/07/02 08:10:10;;;;;;;2.13;0.60;;;22.40;54.00;;;;;;4997380;28;20049;-74
2022/07/02 08:12:37;;;;;;;2.03;0.50;;;22.40;50.60;;;;;;5001659;28;20049;-74
2022/07/02 08:15:04;;;;;;;1.40;0.50;;;22.50;49.70;;;;;;5001022;28;20109;-75
2022/07/02 08:17:30;;;;;;;3.63;0.57;;;22.70;49.50;;;;;;5004168;28;20014;-76
2022/07/02 08:19:57;;;;;;;4.22;0.88;;;22.70;49.10;;;;;;5010989;28;20495;-75
2022/07/02 08:22:23;;;;;;;2.65;0.60;;;22.80;53.30;;;;;;5011214;28;20033;-77
2022/07/02 08:24:51;;;;;;;1.60;0.70;;;22.90;53.90;;;;;;5010674;28;20034;-74
2022/07/02 08:27:17;;;;;;;3.30;0.77;;;22.90;51.30;;;;;;5029223;28;20053;-75
2022/07/02 08:29:42;;;;;;;4.30;0.60;;;22.90;49.60;;;;;;5010321;28;20093;-74
2022/07/02 08:32:08;;;;;;;2.63;0.60;;;22.90;50.00;;;;;;5012439;28;20520;-73
2022/07/02 08:34:34;;;;;;;3.65;0.80;;;23.10;51.60;;;;;;5009827;28;20022;-74
2022/07/02 08:37:00;;;;;;;5.20;0.68;;;23.20;48.80;;;;;;4994949;28;20037;-73
2022/07/02 08:39:27;;;;;;;5.88;1.38;;;23.10;49.10;;;;;;5002439;28;20097;-74
2022/07/02 08:41:58;;;;;;;4.60;0.88;;;23.30;51.30;;;;;;5004146;28;20052;-73
2022/07/02 08:44:25;;;;;;;4.30;0.90;;;23.40;52.20;;;;;;5004538;28;20022;-74
2022/07/02 08:46:51;;;;;;;1.77;0.50;;;23.60;50.40;;;;;;5002931;28;20013;-75
2022/07/02 08:49:21;;;;;;;1.38;0.50;;;23.70;50.30;;;;;;4999485;28;20088;-74
2022/07/02 08:51:54;;;;;;;3.25;0.80;;;23.70;50.00;;;;;;4999610;28;20084;-74
2022/07/02 08:54:22;;;;;;;4.40;0.70;;;23.80;50.10;;;;;;4998161;28;20041;-74
2022/07/02 08:56:50;;;;;;;3.25;0.70;;;23.90;50.70;;;;;;5002534;28;20025;-77
2022/07/02 08:59:17;;;;;;;4.20;0.90;;;24.00;51.60;;;;;;5001956;28;20112;-78
2022/07/02 09:01:45;;;;;;;3.75;1.00;;;24.10;52.00;;;;;;5001419;28;20120;-78
2022/07/02 09:04:14;;;;;;;3.05;0.75;;;24.10;51.10;;;;;;5002480;28;20049;-80
2022/07/02 09:06:41;;;;;;;5.00;1.17;;;24.20;49.90;;;;;;5002325;28;20109;-78
2022/07/02 09:09:08;;;;;;;3.53;0.77;;;24.40;49.20;;;;;;5000904;28;20081;-78
2022/07/02 09:11:35;;;;;;;4.00;1.40;;;24.50;48.70;;;;;;5001753;28;20030;-78
2022/07/02 09:14:02;;;;;;;3.80;1.02;;;24.60;49.20;;;;;;5003300;28;20200;-80
2022/07/02 09:16:27;;;;;;;3.17;1.02;;;24.70;50.90;;;;;;5003977;28;20025;-79
2022/07/02 09:18:53;;;;;;;3.20;0.90;;;24.60;50.30;;;;;;5002187;28;20029;-77
2022/07/02 09:21:19;;;;;;;2.67;0.63;;;24.70;49.70;;;;;;5001070;28;20022;-76
2022/07/02 09:23:47;;;;;;;3.55;0.88;;;24.70;49.70;;;;;;5001892;28;20057;-76
2022/07/02 09:26:24;;;;;;;3.28;0.60;;;24.80;50.70;;;;;;5001229;28;20060;-77
2022/07/02 09:28:59;;;;;;;3.90;1.05;;;24.70;49.30;;;;;;5002075;28;20050;-78
2022/07/02 09:31:29;;;;;;;1.48;0.43;;;24.70;51.60;;;;;;5017481;28;20040;-75
2022/07/02 09:33:55;;;;;;;3.85;0.80;;;24.80;50.40;;;;;;5002254;28;20030;-76
2022/07/02 09:36:21;;;;;;;4.22;0.70;;;25.00;50.10;;;;;;5000269;28;20049;-77
2022/07/02 09:38:50;;;;;;;2.80;1.05;;;25.10;49.20;;;;;;5002298;28;20065;-78
2022/07/02 09:41:20;;;;;;;3.35;0.80;;;25.10;49.10;;;;;;5001199;28;20031;-77
2022/07/02 09:44:02;;;;;;;3.10;0.77;;;25.10;50.70;;;;;;4999490;28;20055;-76
2022/07/02 09:46:29;;;;;;;6.20;1.27;;;25.30;49.60;;;;;;4999264;28;20097;-75
2022/07/02 09:49:08;;;;;;;2.97;0.80;;;25.50;47.30;;;;;;4999705;28;20526;-77
2022/07/02 09:51:55;;;;;;;3.33;0.60;;;25.60;49.80;;;;;;4998821;28;20021;-77
2022/07/02 09:54:23;;;;;;;3.70;0.73;;;25.50;50.00;;;;;;5002081;28;20235;-78
2022/07/02 09:56:53;;;;;;;3.38;0.77;;;25.40;47.30;;;;;;5003298;28;20022;-77
2022/07/02 09:59:19;;;;;;;2.28;0.52;;;25.40;50.10;;;;;;5000906;28;20480;-81
2022/07/02 10:01:44;;;;;;;2.05;0.65;;;25.50;50.50;;;;;;5000521;28;20056;-76
2022/07/02 10:04:10;;;;;;;6.85;1.58;;;25.50;51.50;;;;;;4993460;28;20126;-75
2022/07/02 10:06:37;;;;;;;4.10;1.30;;;25.40;46.60;;;;;;4990920;28;20022;-74
2022/07/02 10:09:03;;;;;;;4.47;1.20;;;25.20;48.70;;;;;;5008615;28;20041;-76
2022/07/02 10:11:30;;;;;;;5.10;1.00;;;25.10;46.70;;;;;;5008074;28;20062;-76
2022/07/02 10:13:57;;;;;;;3.28;0.95;;;25.20;48.40;;;;;;5000397;28;20101;-76
2022/07/02 10:16:25;;;;;;;6.97;0.93;;;25.30;45.80;;;;;;4989113;28;20042;-76
2022/07/02 10:18:52;;;;;;;2.85;0.70;;;25.40;49.40;;;;;;4991606;28;20118;-76
2022/07/02 10:21:18;;;;;;;3.88;1.10;;;25.50;47.80;;;;;;4990212;28;20018;-76
2022/07/02 10:23:45;;;;;;;3.67;0.80;;;25.80;46.10;;;;;;5005762;28;20034;-76
2022/07/02 10:26:12;;;;;;;6.20;1.00;;;25.70;46.50;;;;;;4987769;28;20966;-77
2022/07/02 10:28:37;;;;;;;3.30;0.80;;;25.50;45.40;;;;;;4991954;28;20030;-77
2022/07/02 10:31:06;;;;;;;3.42;1.20;;;25.30;46.60;;;;;;5007231;28;20095;-76
2022/07/02 10:33:53;;;;;;;4.20;1.08;;;25.30;46.70;;;;;;5006531;28;20479;-77
2022/07/02 10:36:21;;;;;;;4.68;0.88;;;25.50;45.90;;;;;;5006507;28;20539;-77
2022/07/02 10:38:56;;;;;;;3.75;1.05;;;26.00;48.50;;;;;;5003900;28;20030;-77
2022/07/02 10:41:26;;;;;;;3.13;0.73;;;26.20;45.80;;;;;;5007955;28;20048;-78
2022/07/02 10:43:54;;;;;;;4.50;1.05;;;26.00;48.00;;;;;;4998492;28;20685;-79
2022/07/02 10:46:24;;;;;;;3.13;1.00;;;25.90;46.60;;;;;;5006351;28;20448;-80
2022/07/02 10:48:54;;;;;;;3.07;0.80;;;25.70;47.80;;;;;;5006583;28;20038;-76
2022/07/02 10:51:23;;;;;;;3.45;0.75;;;25.70;48.10;;;;;;5005764;28;20399;-81
2022/07/02 10:53:51;;;;;;;4.82;1.05;;;25.70;47.50;;;;;;5003812;28;20026;-80
2022/07/02 10:56:17;;;;;;;5.63;1.33;;;26.00;50.20;;;;;;5004489;28;20041;-79
2022/07/02 10:58:43;;;;;;;5.57;0.88;;;26.20;47.40;;;;;;5002683;28;20830;-78
2022/07/02 11:01:10;;;;;;;6.75;1.45;;;26.50;45.60;;;;;;5000718;28;20029;-76
2022/07/02 11:03:36;;;;;;;2.72;0.90;;;26.60;45.50;;;;;;5005871;28;20046;-77
2022/07/02 11:06:32;;;;;;;4.28;0.95;;;26.60;49.00;;;;;;5002077;28;20350;-78
2022/07/02 11:09:01;;;;;;;4.72;0.93;;;26.50;47.50;;;;;;5017024;28;20038;-77
2022/07/02 11:11:34;;;;;;;3.30;0.67;;;26.20;49.60;;;;;;4996595;28;20397;-77
2022/07/02 11:14:18;;;;;;;2.58;0.70;;;26.20;51.50;;;;;;4993596;28;20026;-79
2022/07/02 11:16:47;;;;;;;4.18;0.95;;;26.50;48.50;;;;;;5000362;28;20034;-77
2022/07/02 11:19:17;;;;;;;4.65;0.98;;;26.90;47.40;;;;;;5012482;28;20030;-78
2022/07/02 11:21:44;;;;;;;3.80;0.68;;;27.00;50.50;;;;;;5016593;28;20029;-79
2022/07/02 11:24:12;;;;;;;3.13;0.60;;;27.00;45.60;;;;;;5012733;28;20033;-76
2022/07/02 11:26:42;;;;;;;4.18;1.00;;;26.90;46.60;;;;;;4987956;28;20026;-78
2022/07/02 11:29:08;;;;;;;;;;;26.80;45.50;;;;;;4990209;28;20041;-77
2022/07/02 11:31:39;;;;;;;2.38;0.80;;;26.70;43.90;;;;;;5016264;28;19910;-78
2022/07/02 11:34:05;;;;;;;6.00;0.93;;;26.80;44.40;;;;;;5025470;28;20841;-78
2022/07/02 11:36:31;;;;;;;6.30;0.80;;;27.10;50.30;;;;;;5009816;28;20084;-79
2022/07/02 11:38:58;;;;;;;3.03;0.80;;;27.10;51.00;;;;;;5007769;28;20026;-78
2022/07/02 11:41:25;;;;;;;3.75;1.00;;;27.00;46.50;;;;;;5008172;28;20028;-79
2022/07/02 11:43:53;;;;;;;3.03;0.70;;;26.80;42.40;;;;;;5003966;28;20492;-78
2022/07/02 11:46:21;;;;;;;3.60;0.90;;;26.70;44.50;;;;;;4996391;28;20086;-78
2022/07/02 11:48:48;;;;;;;2.15;0.80;;;26.70;45.40;;;;;;5008389;28;20034;-77
2022/07/02 11:51:13;;;;;;;4.80;1.00;;;26.70;49.90;;;;;;5000739;28;20138;-77
2022/07/02 11:53:39;;;;;;;3.38;0.98;;;26.70;48.90;;;;;;5011034;28;20114;-78
2022/07/02 11:56:07;;;;;;;5.25;1.40;;;26.90;49.70;;;;;;5008007;28;20091;-78
2022/07/02 11:58:48;;;;;;;3.65;0.85;;;26.90;43.30;;;;;;5003927;28;20105;-78
2022/07/02 12:01:25;;;;;;;3.15;0.70;;;26.90;44.80;;;;;;5003844;28;20030;-78
2022/07/02 12:03:53;;;;;;;2.17;0.75;;;26.90;45.90;;;;;;5008480;28;20049;-77
2022/07/02 12:06:20;;;;;;;2.75;0.77;;;27.10;45.80;;;;;;5005163;28;20042;-76
2022/07/02 12:08:50;;;;;;;3.22;1.08;;;27.10;44.80;;;;;;5008858;28;20436;-78
2022/07/02 12:11:17;;;;;;;2.10;0.55;;;27.30;44.70;;;;;;5005896;28;20118;-77
2022/07/02 12:13:44;;;;;;;4.13;1.17;;;27.40;50.50;;;;;;5004684;28;20028;-77
2022/07/02 12:16:21;;;;;;;3.05;0.90;;;27.30;42.30;;;;;;5005735;28;20109;-78
2022/07/02 12:19:16;;;;;;;2.47;0.90;;;27.10;45.60;;;;;;5002948;28;20018;-78
2022/07/02 12:21:49;;;;;;;1.63;0.70;;;26.80;51.00;;;;;;4994474;28;20684;-78
2022/07/02 12:24:26;;;;;;;1.15;0.60;;;26.60;50.00;;;;;;5020381;28;20048;-77
2022/07/02 12:26:55;;;;;;;2.95;0.60;;;26.40;51.20;;;;;;5018965;28;20026;-77
2022/07/02 12:32:13;;;;;;;2.58;0.90;;;26.30;53.60;;;;;;4997715;28;20037;-78
2022/07/02 12:34:45;;;;;;;3.20;0.70;;;26.50;51.40;;;;;;4996114;28;20117;-78
2022/07/02 12:37:32;;;;;;;4.18;0.60;;;27.00;48.50;;;;;;4997689;28;20021;-78
2022/07/02 12:40:15;;;;;;;4.15;0.90;;;27.10;48.60;;;;;;5007082;28;20018;-78
2022/07/02 12:42:59;;;;;;;1.70;0.55;;;27.00;48.30;;;;;;5006583;28;20026;-78
2022/07/02 12:45:29;;;;;;;3.65;0.88;;;26.80;48.70;;;;;;4993778;28;20018;-78
2022/07/02 12:48:06;;;;;;;1.88;0.50;;;26.70;50.20;;;;;;4999157;28;20031;-78
2022/07/02 12:50:40;;;;;;;1.83;0.50;;;27.00;50.20;;;;;;5010932;28;20057;-78
2022/07/02 12:53:15;;;;;;;3.58;1.02;;;27.20;45.70;;;;;;5010655;28;20026;-78
2022/07/02 12:55:55;;;;;;;3.95;0.80;;;27.30;45.60;;;;;;4994349;28;20049;-78
2022/07/02 12:58:20;;;;;;;2.90;0.80;;;27.30;48.40;;;;;;4997118;28;20026;-77
2022/07/02 13:00:46;;;;;;;1.50;0.70;;;27.00;45.20;;;;;;5008374;28;20018;-78